LGL1300 EDDM-ESGG
Flight info
| Callsign | LGL1300 |
|---|---|
| Flight time | N/A |
| Altitude | 37000 |
| Route | INPUD2N/26R INPUD Y102 UPALA M726 LASGA DCT NEDIK DCT ROKAM L997 RISMA |
| Aircraft | B38M/M-SDE1FGHILORVWXY/HB1 |
Departure
| Time | N/A |
|---|---|
| Airport | Munich Airport (EDDM) |
Arrival
| Time | 2026-05-07 12:34 |
|---|---|
| Airport | Göteborg Landvetter Airport (ESGG) |
| Time | Latitude | Longitude | Altitude | Speed | Heading |
|---|---|---|---|---|---|
| 2026-05-07 12:21 | 56.86559 | 12.02954 | 12746 ft | 297 kts | 349° |
| 2026-05-07 12:21 | 56.88595 | 12.02375 | 12435 ft | 295 kts | 349° |
| 2026-05-07 12:22 | 56.90613 | 12.01800 | 12117 ft | 293 kts | 349° |
| 2026-05-07 12:22 | 56.92622 | 12.01228 | 11799 ft | 291 kts | 349° |
| 2026-05-07 12:22 | 56.94614 | 12.00660 | 11456 ft | 290 kts | 349° |
| 2026-05-07 12:22 | 56.96598 | 12.00093 | 11158 ft | 287 kts | 350° |
| 2026-05-07 12:23 | 56.98564 | 11.99531 | 10846 ft | 285 kts | 350° |
| 2026-05-07 12:23 | 57.00518 | 11.98971 | 10537 ft | 283 kts | 350° |
| 2026-05-07 12:23 | 57.01800 | 11.98604 | 10348 ft | 281 kts | 350° |
| 2026-05-07 12:23 | 57.03711 | 11.98085 | 10190 ft | 273 kts | 354° |
| 2026-05-07 12:24 | 57.05577 | 11.98368 | 10003 ft | 267 kts | 9° |
| 2026-05-07 12:24 | 57.07402 | 11.98946 | 9720 ft | 265 kts | 8° |
| 2026-05-07 12:24 | 57.09215 | 11.99517 | 9434 ft | 263 kts | 9° |
| 2026-05-07 12:24 | 57.11018 | 12.00086 | 9158 ft | 261 kts | 9° |
| 2026-05-07 12:25 | 57.12800 | 12.00653 | 8871 ft | 259 kts | 9° |
| 2026-05-07 12:25 | 57.14576 | 12.01219 | 8569 ft | 258 kts | 9° |
| 2026-05-07 12:25 | 57.16342 | 12.01781 | 8292 ft | 257 kts | 9° |
| 2026-05-07 12:25 | 57.18099 | 12.02342 | 8009 ft | 255 kts | 9° |
| 2026-05-07 12:26 | 57.19843 | 12.02900 | 7729 ft | 253 kts | 9° |
| 2026-05-07 12:26 | 57.21573 | 12.03453 | 7451 ft | 252 kts | 9° |
| 2026-05-07 12:26 | 57.23318 | 12.04011 | 7179 ft | 257 kts | 9° |
| 2026-05-07 12:26 | 57.25096 | 12.04580 | 6894 ft | 260 kts | 9° |
| 2026-05-07 12:27 | 57.26883 | 12.05154 | 6605 ft | 262 kts | 9° |
| 2026-05-07 12:27 | 57.28677 | 12.05730 | 6309 ft | 261 kts | 9° |
| 2026-05-07 12:27 | 57.30453 | 12.06301 | 6018 ft | 259 kts | 9° |
| 2026-05-07 12:27 | 57.32226 | 12.06872 | 5730 ft | 257 kts | 9° |
| 2026-05-07 12:28 | 57.33978 | 12.07436 | 5434 ft | 256 kts | 9° |
| 2026-05-07 12:28 | 57.35732 | 12.08002 | 5118 ft | 255 kts | 9° |
| 2026-05-07 12:28 | 57.37460 | 12.08559 | 4949 ft | 249 kts | 9° |
| 2026-05-07 12:28 | 57.39137 | 12.09102 | 4824 ft | 241 kts | 9° |
| 2026-05-07 12:29 | 57.40757 | 12.09626 | 4689 ft | 232 kts | 9° |
| 2026-05-07 12:29 | 57.42322 | 12.10130 | 4561 ft | 225 kts | 9° |
| 2026-05-07 12:29 | 57.43837 | 12.10622 | 4422 ft | 217 kts | 9° |
| 2026-05-07 12:29 | 57.45299 | 12.11097 | 4293 ft | 210 kts | 9° |
| 2026-05-07 12:30 | 57.46679 | 12.11547 | 4235 ft | 199 kts | 9° |
| 2026-05-07 12:30 | 57.48031 | 12.12016 | 3999 ft | 198 kts | 13° |
| 2026-05-07 12:30 | 57.49335 | 12.12776 | 3810 ft | 194 kts | 21° |
| 2026-05-07 12:30 | 57.50573 | 12.13779 | 3568 ft | 194 kts | 24° |
| 2026-05-07 12:31 | 57.51796 | 12.14866 | 3298 ft | 195 kts | 25° |
| 2026-05-07 12:31 | 57.53012 | 12.15964 | 3063 ft | 194 kts | 25° |
| 2026-05-07 12:31 | 57.54220 | 12.17058 | 2803 ft | 192 kts | 25° |
| 2026-05-07 12:31 | 57.55415 | 12.18138 | 2530 ft | 190 kts | 25° |
| 2026-05-07 12:32 | 57.56590 | 12.19200 | 2294 ft | 185 kts | 24° |
| 2026-05-07 12:32 | 57.57738 | 12.20240 | 2069 ft | 182 kts | 24° |
| 2026-05-07 12:32 | 57.58880 | 12.21274 | 1815 ft | 182 kts | 24° |
| 2026-05-07 12:32 | 57.59954 | 12.22247 | 1638 ft | 161 kts | 24° |
| 2026-05-07 12:33 | 57.61875 | 12.23984 | 1199 ft | 150 kts | 24° |
| 2026-05-07 12:33 | 57.62796 | 12.24792 | 1001 ft | 144 kts | 24° |
| 2026-05-07 12:33 | 57.63692 | 12.25615 | 821 ft | 145 kts | 25° |
| 2026-05-07 12:34 | 57.64593 | 12.26430 | 643 ft | 144 kts | 25° |
| 2026-05-07 12:34 | 57.65487 | 12.27251 | 525 ft | 137 kts | 25° |
| 2026-05-07 12:34 | 57.66229 | 12.27925 | 518 ft | 90 kts | 26° |
| 2026-05-07 12:34 | 57.66579 | 12.28275 | 526 ft | 27 kts | 37° |
| 2026-05-07 12:35 | 57.66709 | 12.28544 | 526 ft | 26 kts | 58° |
| 2026-05-07 12:35 | 57.66758 | 12.28682 | 527 ft | 7 kts | 55° |
| 2026-05-07 12:35 | 57.66791 | 12.28771 | 528 ft | 9 kts | 52° |
| 2026-05-07 12:35 | 57.66840 | 12.28857 | 528 ft | 4 kts | 54° |
| 2026-05-07 12:36 | 57.66841 | 12.28871 | 528 ft | 0 kts | 104° |
| 2026-05-07 12:36 | 57.66834 | 12.28892 | 528 ft | 5 kts | 124° |
| 2026-05-07 12:36 | 57.66798 | 12.29007 | 528 ft | 15 kts | 118° |
| 2026-05-07 12:36 | 57.66749 | 12.29193 | 528 ft | 8 kts | 118° |
| 2026-05-07 12:37 | 57.66733 | 12.29253 | 528 ft | 5 kts | 116° |
| 2026-05-07 12:37 | 57.66728 | 12.29271 | 528 ft | 2 kts | 116° |
| 2026-05-07 12:37 | 57.66727 | 12.29274 | 528 ft | 0 kts | 116° |